sensor_id;sensor_type;location;lat;lon;timestamp;P1;durP1;ratioP1;P2;durP2;ratioP2
75016;SDS011;63577;39.766;2.720;2023-12-29T00:01:13;9.00;;;3.70;;
75016;SDS011;63577;39.766;2.720;2023-12-29T00:03:38;6.90;;;3.90;;
75016;SDS011;63577;39.766;2.720;2023-12-29T00:06:04;20.20;;;8.60;;
75016;SDS011;63577;39.766;2.720;2023-12-29T00:08:29;37.80;;;16.90;;
75016;SDS011;63577;39.766;2.720;2023-12-29T00:10:55;19.80;;;10.20;;
75016;SDS011;63577;39.766;2.720;2023-12-29T00:13:20;9.00;;;4.60;;
75016;SDS011;63577;39.766;2.720;2023-12-29T00:15:52;35.90;;;13.00;;
75016;SDS011;63577;39.766;2.720;2023-12-29T00:18:18;43.60;;;18.80;;
75016;SDS011;63577;39.766;2.720;2023-12-29T00:20:43;30.80;;;12.90;;
75016;SDS011;63577;39.766;2.720;2023-12-29T00:23:08;19.70;;;8.10;;
75016;SDS011;63577;39.766;2.720;2023-12-29T00:25:37;10.80;;;4.90;;
75016;SDS011;63577;39.766;2.720;2023-12-29T00:28:03;8.00;;;4.50;;
75016;SDS011;63577;39.766;2.720;2023-12-29T00:30:28;8.90;;;4.30;;
75016;SDS011;63577;39.766;2.720;2023-12-29T00:32:57;8.80;;;4.70;;
75016;SDS011;63577;39.766;2.720;2023-12-29T00:35:22;9.20;;;4.60;;
75016;SDS011;63577;39.766;2.720;2023-12-29T00:37:49;8.90;;;4.80;;
75016;SDS011;63577;39.766;2.720;2023-12-29T00:40:15;7.60;;;4.90;;
75016;SDS011;63577;39.766;2.720;2023-12-29T00:42:40;7.70;;;4.30;;
75016;SDS011;63577;39.766;2.720;2023-12-29T00:45:05;6.80;;;3.90;;
75016;SDS011;63577;39.766;2.720;2023-12-29T00:47:31;6.60;;;3.90;;
75016;SDS011;63577;39.766;2.720;2023-12-29T00:49:56;7.50;;;4.10;;
75016;SDS011;63577;39.766;2.720;2023-12-29T00:52:22;7.30;;;3.90;;
75016;SDS011;63577;39.766;2.720;2023-12-29T00:54:47;9.30;;;4.60;;
75016;SDS011;63577;39.766;2.720;2023-12-29T00:57:12;6.40;;;4.20;;
75016;SDS011;63577;39.766;2.720;2023-12-29T00:59:38;7.70;;;4.50;;
75016;SDS011;63577;39.766;2.720;2023-12-29T01:02:06;6.90;;;4.40;;
75016;SDS011;63577;39.766;2.720;2023-12-29T01:04:31;7.70;;;4.80;;
75016;SDS011;63577;39.766;2.720;2023-12-29T01:06:57;10.40;;;6.80;;
75016;SDS011;63577;39.766;2.720;2023-12-29T01:09:22;8.10;;;5.00;;
75016;SDS011;63577;39.766;2.720;2023-12-29T01:11:47;8.60;;;5.80;;
75016;SDS011;63577;39.766;2.720;2023-12-29T01:14:13;7.00;;;4.40;;
75016;SDS011;63577;39.766;2.720;2023-12-29T01:16:39;9.30;;;5.20;;
75016;SDS011;63577;39.766;2.720;2023-12-29T01:19:04;8.70;;;5.10;;
75016;SDS011;63577;39.766;2.720;2023-12-29T01:21:30;9.80;;;4.60;;
75016;SDS011;63577;39.766;2.720;2023-12-29T01:23:59;7.50;;;5.50;;
75016;SDS011;63577;39.766;2.720;2023-12-29T01:26:24;9.50;;;4.80;;
75016;SDS011;63577;39.766;2.720;2023-12-29T01:28:50;8.90;;;5.20;;
75016;SDS011;63577;39.766;2.720;2023-12-29T01:31:15;8.90;;;5.30;;
75016;SDS011;63577;39.766;2.720;2023-12-29T01:33:40;7.20;;;4.30;;
75016;SDS011;63577;39.766;2.720;2023-12-29T01:36:06;8.10;;;4.50;;
75016;SDS011;63577;39.766;2.720;2023-12-29T01:38:31;7.70;;;4.40;;
75016;SDS011;63577;39.766;2.720;2023-12-29T01:40:57;8.80;;;5.10;;
75016;SDS011;63577;39.766;2.720;2023-12-29T01:43:22;8.70;;;5.40;;
75016;SDS011;63577;39.766;2.720;2023-12-29T01:45:47;7.70;;;4.60;;
75016;SDS011;63577;39.766;2.720;2023-12-29T01:48:13;10.80;;;5.30;;
75016;SDS011;63577;39.766;2.720;2023-12-29T01:50:39;11.50;;;7.00;;
75016;SDS011;63577;39.766;2.720;2023-12-29T01:53:06;9.70;;;4.60;;
75016;SDS011;63577;39.766;2.720;2023-12-29T01:55:32;12.80;;;5.60;;
75016;SDS011;63577;39.766;2.720;2023-12-29T01:57:57;9.70;;;5.60;;
75016;SDS011;63577;39.766;2.720;2023-12-29T02:00:23;8.70;;;4.90;;
75016;SDS011;63577;39.766;2.720;2023-12-29T02:02:48;9.50;;;4.70;;
75016;SDS011;63577;39.766;2.720;2023-12-29T02:05:14;8.80;;;4.90;;
75016;SDS011;63577;39.766;2.720;2023-12-29T02:07:41;10.30;;;7.00;;
75016;SDS011;63577;39.766;2.720;2023-12-29T02:10:07;12.20;;;7.30;;
75016;SDS011;63577;39.766;2.720;2023-12-29T02:12:34;9.30;;;5.90;;
75016;SDS011;63577;39.766;2.720;2023-12-29T02:15:00;8.50;;;4.60;;
75016;SDS011;63577;39.766;2.720;2023-12-29T02:17:26;8.80;;;5.30;;
75016;SDS011;63577;39.766;2.720;2023-12-29T02:19:52;8.50;;;5.30;;
75016;SDS011;63577;39.766;2.720;2023-12-29T02:22:18;11.00;;;5.50;;
75016;SDS011;63577;39.766;2.720;2023-12-29T02:24:50;9.30;;;4.90;;
75016;SDS011;63577;39.766;2.720;2023-12-29T02:29:44;8.50;;;4.90;;
75016;SDS011;63577;39.766;2.720;2023-12-29T02:32:13;7.70;;;4.10;;
75016;SDS011;63577;39.766;2.720;2023-12-29T02:34:41;6.50;;;4.10;;
75016;SDS011;63577;39.766;2.720;2023-12-29T02:37:07;8.00;;;4.30;;
75016;SDS011;63577;39.766;2.720;2023-12-29T02:39:33;6.30;;;4.20;;
75016;SDS011;63577;39.766;2.720;2023-12-29T02:41:59;8.70;;;4.20;;
75016;SDS011;63577;39.766;2.720;2023-12-29T02:44:24;8.00;;;4.40;;
75016;SDS011;63577;39.766;2.720;2023-12-29T02:46:50;7.10;;;3.90;;
75016;SDS011;63577;39.766;2.720;2023-12-29T02:49:16;6.70;;;4.30;;
75016;SDS011;63577;39.766;2.720;2023-12-29T02:51:41;7.40;;;4.40;;
75016;SDS011;63577;39.766;2.720;2023-12-29T02:54:06;9.70;;;4.10;;
75016;SDS011;63577;39.766;2.720;2023-12-29T02:56:33;8.90;;;5.20;;
75016;SDS011;63577;39.766;2.720;2023-12-29T02:58:59;7.60;;;4.50;;
75016;SDS011;63577;39.766;2.720;2023-12-29T03:01:24;7.60;;;4.40;;
75016;SDS011;63577;39.766;2.720;2023-12-29T03:03:49;8.50;;;4.30;;
75016;SDS011;63577;39.766;2.720;2023-12-29T03:06:15;8.90;;;4.80;;
75016;SDS011;63577;39.766;2.720;2023-12-29T03:08:41;7.50;;;4.30;;
75016;SDS011;63577;39.766;2.720;2023-12-29T03:11:06;7.70;;;4.50;;
75016;SDS011;63577;39.766;2.720;2023-12-29T03:13:31;7.90;;;5.00;;
75016;SDS011;63577;39.766;2.720;2023-12-29T03:15:57;8.10;;;4.90;;
75016;SDS011;63577;39.766;2.720;2023-12-29T03:18:22;9.90;;;4.50;;
75016;SDS011;63577;39.766;2.720;2023-12-29T03:20:47;7.50;;;4.40;;
75016;SDS011;63577;39.766;2.720;2023-12-29T03:23:13;8.90;;;4.20;;
75016;SDS011;63577;39.766;2.720;2023-12-29T03:25:38;13.70;;;6.90;;
75016;SDS011;63577;39.766;2.720;2023-12-29T03:28:04;11.20;;;5.40;;
75016;SDS011;63577;39.766;2.720;2023-12-29T03:30:29;10.90;;;5.80;;
75016;SDS011;63577;39.766;2.720;2023-12-29T03:32:54;13.70;;;6.30;;
75016;SDS011;63577;39.766;2.720;2023-12-29T03:35:20;10.30;;;5.80;;
75016;SDS011;63577;39.766;2.720;2023-12-29T03:37:45;9.20;;;4.80;;
75016;SDS011;63577;39.766;2.720;2023-12-29T03:40:10;9.40;;;4.70;;
75016;SDS011;63577;39.766;2.720;2023-12-29T03:42:37;8.10;;;4.70;;
75016;SDS011;63577;39.766;2.720;2023-12-29T03:45:03;7.30;;;4.50;;
75016;SDS011;63577;39.766;2.720;2023-12-29T03:47:29;8.90;;;4.60;;
75016;SDS011;63577;39.766;2.720;2023-12-29T03:49:55;8.10;;;4.50;;
75016;SDS011;63577;39.766;2.720;2023-12-29T03:52:21;7.70;;;3.80;;
75016;SDS011;63577;39.766;2.720;2023-12-29T03:54:46;10.50;;;3.50;;
75016;SDS011;63577;39.766;2.720;2023-12-29T03:57:12;8.50;;;3.60;;
75016;SDS011;63577;39.766;2.720;2023-12-29T03:59:37;7.10;;;3.60;;
75016;SDS011;63577;39.766;2.720;2023-12-29T04:02:02;7.80;;;3.10;;
75016;SDS011;63577;39.766;2.720;2023-12-29T04:04:28;9.70;;;5.10;;
75016;SDS011;63577;39.766;2.720;2023-12-29T04:06:53;10.10;;;5.00;;
75016;SDS011;63577;39.766;2.720;2023-12-29T04:09:18;10.80;;;6.30;;
75016;SDS011;63577;39.766;2.720;2023-12-29T04:11:45;12.50;;;7.40;;
75016;SDS011;63577;39.766;2.720;2023-12-29T04:14:10;10.40;;;5.40;;
75016;SDS011;63577;39.766;2.720;2023-12-29T04:16:38;9.20;;;5.20;;
75016;SDS011;63577;39.766;2.720;2023-12-29T04:19:03;9.60;;;5.30;;
75016;SDS011;63577;39.766;2.720;2023-12-29T04:21:29;8.90;;;5.10;;
75016;SDS011;63577;39.766;2.720;2023-12-29T04:23:54;9.50;;;4.90;;
75016;SDS011;63577;39.766;2.720;2023-12-29T04:26:20;8.40;;;4.70;;
75016;SDS011;63577;39.766;2.720;2023-12-29T04:28:45;10.30;;;5.80;;
75016;SDS011;63577;39.766;2.720;2023-12-29T04:31:10;10.90;;;5.40;;
75016;SDS011;63577;39.766;2.720;2023-12-29T04:33:36;10.10;;;5.30;;
75016;SDS011;63577;39.766;2.720;2023-12-29T04:36:01;8.50;;;5.20;;
75016;SDS011;63577;39.766;2.720;2023-12-29T04:38:26;8.40;;;4.30;;
75016;SDS011;63577;39.766;2.720;2023-12-29T04:40:52;8.00;;;4.40;;
75016;SDS011;63577;39.766;2.720;2023-12-29T04:43:17;8.20;;;4.10;;
75016;SDS011;63577;39.766;2.720;2023-12-29T04:45:42;6.90;;;3.90;;
75016;SDS011;63577;39.766;2.720;2023-12-29T04:48:07;9.70;;;4.70;;
75016;SDS011;63577;39.766;2.720;2023-12-29T04:50:33;7.40;;;4.70;;
75016;SDS011;63577;39.766;2.720;2023-12-29T04:52:59;7.20;;;4.60;;
75016;SDS011;63577;39.766;2.720;2023-12-29T04:55:24;8.20;;;4.10;;
75016;SDS011;63577;39.766;2.720;2023-12-29T04:57:49;10.90;;;4.40;;
75016;SDS011;63577;39.766;2.720;2023-12-29T05:00:15;6.40;;;3.80;;
75016;SDS011;63577;39.766;2.720;2023-12-29T05:02:40;8.40;;;3.80;;
75016;SDS011;63577;39.766;2.720;2023-12-29T05:05:06;8.20;;;3.80;;
75016;SDS011;63577;39.766;2.720;2023-12-29T05:07:31;7.80;;;3.50;;
75016;SDS011;63577;39.766;2.720;2023-12-29T05:09:57;6.00;;;3.20;;
75016;SDS011;63577;39.766;2.720;2023-12-29T05:12:22;6.20;;;3.20;;
75016;SDS011;63577;39.766;2.720;2023-12-29T05:14:47;7.20;;;3.20;;
75016;SDS011;63577;39.766;2.720;2023-12-29T05:17:13;7.40;;;3.50;;
75016;SDS011;63577;39.766;2.720;2023-12-29T05:19:38;7.40;;;3.60;;
75016;SDS011;63577;39.766;2.720;2023-12-29T05:22:03;6.40;;;4.00;;
75016;SDS011;63577;39.766;2.720;2023-12-29T05:24:29;6.30;;;3.70;;
75016;SDS011;63577;39.766;2.720;2023-12-29T05:26:54;7.50;;;3.30;;
75016;SDS011;63577;39.766;2.720;2023-12-29T05:29:19;6.40;;;3.30;;
75016;SDS011;63577;39.766;2.720;2023-12-29T05:31:45;6.80;;;3.30;;
75016;SDS011;63577;39.766;2.720;2023-12-29T05:34:10;7.00;;;3.50;;
75016;SDS011;63577;39.766;2.720;2023-12-29T05:36:35;6.30;;;3.20;;
75016;SDS011;63577;39.766;2.720;2023-12-29T05:39:02;6.50;;;3.40;;
75016;SDS011;63577;39.766;2.720;2023-12-29T05:41:28;7.40;;;3.50;;
75016;SDS011;63577;39.766;2.720;2023-12-29T05:43:53;9.20;;;3.60;;
75016;SDS011;63577;39.766;2.720;2023-12-29T05:46:19;6.00;;;3.30;;
75016;SDS011;63577;39.766;2.720;2023-12-29T05:48:46;6.10;;;3.20;;
75016;SDS011;63577;39.766;2.720;2023-12-29T05:51:12;6.20;;;3.50;;
75016;SDS011;63577;39.766;2.720;2023-12-29T05:53:41;6.90;;;3.00;;
75016;SDS011;63577;39.766;2.720;2023-12-29T05:56:06;5.60;;;3.60;;
75016;SDS011;63577;39.766;2.720;2023-12-29T05:58:32;6.50;;;3.90;;
75016;SDS011;63577;39.766;2.720;2023-12-29T06:00:57;7.30;;;3.70;;
75016;SDS011;63577;39.766;2.720;2023-12-29T06:03:25;10.00;;;4.00;;
75016;SDS011;63577;39.766;2.720;2023-12-29T06:05:51;6.40;;;3.60;;
75016;SDS011;63577;39.766;2.720;2023-12-29T06:08:16;5.90;;;3.40;;
75016;SDS011;63577;39.766;2.720;2023-12-29T06:10:42;6.60;;;3.20;;
75016;SDS011;63577;39.766;2.720;2023-12-29T06:13:07;7.00;;;3.10;;
75016;SDS011;63577;39.766;2.720;2023-12-29T06:15:32;8.60;;;3.20;;
75016;SDS011;63577;39.766;2.720;2023-12-29T06:17:58;5.50;;;3.10;;
75016;SDS011;63577;39.766;2.720;2023-12-29T06:20:23;6.50;;;3.80;;
75016;SDS011;63577;39.766;2.720;2023-12-29T06:22:49;7.10;;;3.40;;
75016;SDS011;63577;39.766;2.720;2023-12-29T06:25:14;5.60;;;2.80;;
75016;SDS011;63577;39.766;2.720;2023-12-29T06:27:40;7.10;;;3.80;;
75016;SDS011;63577;39.766;2.720;2023-12-29T06:30:06;7.40;;;3.60;;
75016;SDS011;63577;39.766;2.720;2023-12-29T06:32:31;8.20;;;4.00;;
75016;SDS011;63577;39.766;2.720;2023-12-29T06:34:57;5.60;;;3.60;;
75016;SDS011;63577;39.766;2.720;2023-12-29T06:37:22;6.90;;;3.50;;
75016;SDS011;63577;39.766;2.720;2023-12-29T06:39:47;6.00;;;3.10;;
75016;SDS011;63577;39.766;2.720;2023-12-29T06:42:13;8.00;;;3.20;;
75016;SDS011;63577;39.766;2.720;2023-12-29T06:44:38;7.20;;;3.70;;
75016;SDS011;63577;39.766;2.720;2023-12-29T06:47:04;6.80;;;3.50;;
75016;SDS011;63577;39.766;2.720;2023-12-29T06:49:30;8.60;;;4.30;;
75016;SDS011;63577;39.766;2.720;2023-12-29T06:51:56;11.50;;;6.10;;
75016;SDS011;63577;39.766;2.720;2023-12-29T06:54:22;10.10;;;5.60;;
75016;SDS011;63577;39.766;2.720;2023-12-29T06:56:47;10.80;;;6.10;;
75016;SDS011;63577;39.766;2.720;2023-12-29T06:59:13;9.80;;;6.20;;
75016;SDS011;63577;39.766;2.720;2023-12-29T07:01:39;10.20;;;5.80;;
75016;SDS011;63577;39.766;2.720;2023-12-29T07:04:07;10.90;;;5.40;;
75016;SDS011;63577;39.766;2.720;2023-12-29T07:06:35;10.70;;;6.00;;
75016;SDS011;63577;39.766;2.720;2023-12-29T07:09:01;11.80;;;5.40;;
75016;SDS011;63577;39.766;2.720;2023-12-29T07:11:26;9.70;;;5.70;;
75016;SDS011;63577;39.766;2.720;2023-12-29T07:13:51;8.50;;;5.30;;
75016;SDS011;63577;39.766;2.720;2023-12-29T07:16:17;9.60;;;5.10;;
75016;SDS011;63577;39.766;2.720;2023-12-29T07:18:44;9.30;;;5.30;;
75016;SDS011;63577;39.766;2.720;2023-12-29T07:21:10;11.50;;;4.80;;
75016;SDS011;63577;39.766;2.720;2023-12-29T07:23:37;8.60;;;4.60;;
75016;SDS011;63577;39.766;2.720;2023-12-29T07:26:02;9.80;;;4.90;;
75016;SDS011;63577;39.766;2.720;2023-12-29T07:28:28;11.50;;;5.80;;
75016;SDS011;63577;39.766;2.720;2023-12-29T07:30:53;8.00;;;5.10;;
75016;SDS011;63577;39.766;2.720;2023-12-29T07:33:19;10.20;;;5.20;;
75016;SDS011;63577;39.766;2.720;2023-12-29T07:35:44;10.60;;;5.60;;
75016;SDS011;63577;39.766;2.720;2023-12-29T07:38:09;12.30;;;6.00;;
75016;SDS011;63577;39.766;2.720;2023-12-29T07:40:35;11.40;;;6.20;;
75016;SDS011;63577;39.766;2.720;2023-12-29T07:43:00;8.80;;;5.70;;
75016;SDS011;63577;39.766;2.720;2023-12-29T07:45:25;9.90;;;5.70;;
75016;SDS011;63577;39.766;2.720;2023-12-29T07:47:51;8.90;;;6.10;;
75016;SDS011;63577;39.766;2.720;2023-12-29T07:50:16;10.90;;;6.20;;
75016;SDS011;63577;39.766;2.720;2023-12-29T07:52:44;10.90;;;7.10;;
75016;SDS011;63577;39.766;2.720;2023-12-29T07:55:10;12.70;;;9.40;;
75016;SDS011;63577;39.766;2.720;2023-12-29T07:57:35;11.80;;;8.10;;
75016;SDS011;63577;39.766;2.720;2023-12-29T08:00:01;12.90;;;7.50;;
75016;SDS011;63577;39.766;2.720;2023-12-29T08:02:26;13.90;;;7.90;;
75016;SDS011;63577;39.766;2.720;2023-12-29T08:04:52;13.70;;;8.10;;
75016;SDS011;63577;39.766;2.720;2023-12-29T08:07:19;13.50;;;8.70;;
75016;SDS011;63577;39.766;2.720;2023-12-29T08:09:44;14.70;;;9.40;;
75016;SDS011;63577;39.766;2.720;2023-12-29T08:12:10;12.80;;;8.40;;
75016;SDS011;63577;39.766;2.720;2023-12-29T08:14:35;15.10;;;8.90;;
75016;SDS011;63577;39.766;2.720;2023-12-29T08:17:01;13.60;;;8.20;;
75016;SDS011;63577;39.766;2.720;2023-12-29T08:19:26;11.20;;;7.30;;
75016;SDS011;63577;39.766;2.720;2023-12-29T08:21:52;16.60;;;9.30;;
75016;SDS011;63577;39.766;2.720;2023-12-29T08:24:17;21.30;;;9.50;;
75016;SDS011;63577;39.766;2.720;2023-12-29T08:26:45;18.00;;;9.90;;
75016;SDS011;63577;39.766;2.720;2023-12-29T08:29:11;13.00;;;7.30;;
75016;SDS011;63577;39.766;2.720;2023-12-29T08:31:36;13.80;;;7.80;;
75016;SDS011;63577;39.766;2.720;2023-12-29T08:34:01;16.10;;;8.40;;
75016;SDS011;63577;39.766;2.720;2023-12-29T08:36:27;14.30;;;7.20;;
75016;SDS011;63577;39.766;2.720;2023-12-29T08:38:52;13.70;;;6.80;;
75016;SDS011;63577;39.766;2.720;2023-12-29T08:41:18;14.50;;;7.40;;
75016;SDS011;63577;39.766;2.720;2023-12-29T08:43:43;13.30;;;7.40;;
75016;SDS011;63577;39.766;2.720;2023-12-29T08:46:09;17.90;;;10.30;;
75016;SDS011;63577;39.766;2.720;2023-12-29T08:48:35;22.90;;;11.20;;
75016;SDS011;63577;39.766;2.720;2023-12-29T08:51:00;26.10;;;10.20;;
75016;SDS011;63577;39.766;2.720;2023-12-29T08:53:26;21.90;;;10.50;;
75016;SDS011;63577;39.766;2.720;2023-12-29T08:55:51;34.80;;;14.60;;
75016;SDS011;63577;39.766;2.720;2023-12-29T08:58:17;37.20;;;12.60;;
75016;SDS011;63577;39.766;2.720;2023-12-29T09:00:42;74.00;;;18.60;;
75016;SDS011;63577;39.766;2.720;2023-12-29T09:03:08;45.20;;;17.90;;
75016;SDS011;63577;39.766;2.720;2023-12-29T09:05:34;42.30;;;16.60;;
75016;SDS011;63577;39.766;2.720;2023-12-29T09:07:59;39.90;;;15.70;;
75016;SDS011;63577;39.766;2.720;2023-12-29T09:10:25;29.60;;;14.60;;
75016;SDS011;63577;39.766;2.720;2023-12-29T09:12:50;28.20;;;14.60;;
75016;SDS011;63577;39.766;2.720;2023-12-29T09:15:16;22.90;;;13.90;;
75016;SDS011;63577;39.766;2.720;2023-12-29T09:17:41;20.30;;;13.40;;
75016;SDS011;63577;39.766;2.720;2023-12-29T09:20:07;19.90;;;13.20;;
75016;SDS011;63577;39.766;2.720;2023-12-29T09:22:33;22.50;;;11.90;;
75016;SDS011;63577;39.766;2.720;2023-12-29T09:24:58;20.80;;;12.50;;
75016;SDS011;63577;39.766;2.720;2023-12-29T09:27:24;25.30;;;14.10;;
75016;SDS011;63577;39.766;2.720;2023-12-29T09:29:50;23.80;;;14.80;;
75016;SDS011;63577;39.766;2.720;2023-12-29T09:32:15;27.60;;;15.60;;
75016;SDS011;63577;39.766;2.720;2023-12-29T09:34:41;23.30;;;14.80;;
75016;SDS011;63577;39.766;2.720;2023-12-29T09:37:07;22.90;;;15.30;;
75016;SDS011;63577;39.766;2.720;2023-12-29T09:39:33;26.70;;;16.00;;
75016;SDS011;63577;39.766;2.720;2023-12-29T09:41:58;22.90;;;15.50;;
75016;SDS011;63577;39.766;2.720;2023-12-29T09:44:27;27.20;;;17.00;;
75016;SDS011;63577;39.766;2.720;2023-12-29T09:46:57;25.40;;;17.40;;
75016;SDS011;63577;39.766;2.720;2023-12-29T09:49:23;27.70;;;20.60;;
75016;SDS011;63577;39.766;2.720;2023-12-29T09:51:49;28.50;;;19.00;;
75016;SDS011;63577;39.766;2.720;2023-12-29T09:54:15;28.50;;;18.90;;
75016;SDS011;63577;39.766;2.720;2023-12-29T09:56:40;28.00;;;19.20;;
75016;SDS011;63577;39.766;2.720;2023-12-29T09:59:06;25.10;;;17.40;;
75016;SDS011;63577;39.766;2.720;2023-12-29T10:01:34;27.00;;;16.40;;
75016;SDS011;63577;39.766;2.720;2023-12-29T10:04:00;23.00;;;16.40;;
75016;SDS011;63577;39.766;2.720;2023-12-29T10:06:26;24.30;;;16.20;;
75016;SDS011;63577;39.766;2.720;2023-12-29T10:08:51;25.40;;;16.80;;
75016;SDS011;63577;39.766;2.720;2023-12-29T10:11:18;28.50;;;18.80;;
75016;SDS011;63577;39.766;2.720;2023-12-29T10:13:46;25.40;;;17.00;;
75016;SDS011;63577;39.766;2.720;2023-12-29T10:16:15;27.30;;;18.20;;
75016;SDS011;63577;39.766;2.720;2023-12-29T10:21:33;32.80;;;21.70;;
75016;SDS011;63577;39.766;2.720;2023-12-29T10:24:20;30.70;;;20.20;;
75016;SDS011;63577;39.766;2.720;2023-12-29T10:26:46;35.00;;;22.30;;
75016;SDS011;63577;39.766;2.720;2023-12-29T10:29:12;36.40;;;25.30;;
75016;SDS011;63577;39.766;2.720;2023-12-29T10:31:38;38.80;;;26.50;;
75016;SDS011;63577;39.766;2.720;2023-12-29T10:34:23;40.20;;;25.60;;
75016;SDS011;63577;39.766;2.720;2023-12-29T10:36:53;40.80;;;26.60;;
75016;SDS011;63577;39.766;2.720;2023-12-29T10:39:19;43.90;;;26.90;;
75016;SDS011;63577;39.766;2.720;2023-12-29T10:41:44;36.40;;;23.70;;
75016;SDS011;63577;39.766;2.720;2023-12-29T10:44:10;42.70;;;25.90;;
75016;SDS011;63577;39.766;2.720;2023-12-29T10:46:35;39.00;;;24.60;;
75016;SDS011;63577;39.766;2.720;2023-12-29T10:49:10;40.10;;;24.80;;
75016;SDS011;63577;39.766;2.720;2023-12-29T10:51:36;37.80;;;24.40;;
75016;SDS011;63577;39.766;2.720;2023-12-29T10:54:02;37.00;;;24.10;;
75016;SDS011;63577;39.766;2.720;2023-12-29T10:56:28;40.00;;;25.30;;
75016;SDS011;63577;39.766;2.720;2023-12-29T10:59:04;39.20;;;25.70;;
75016;SDS011;63577;39.766;2.720;2023-12-29T11:01:39;45.30;;;26.60;;
75016;SDS011;63577;39.766;2.720;2023-12-29T11:04:04;34.70;;;22.50;;
75016;SDS011;63577;39.766;2.720;2023-12-29T11:06:43;33.70;;;23.50;;
75016;SDS011;63577;39.766;2.720;2023-12-29T11:09:12;35.00;;;25.70;;
75016;SDS011;63577;39.766;2.720;2023-12-29T11:11:38;28.70;;;17.20;;
75016;SDS011;63577;39.766;2.720;2023-12-29T11:14:03;14.70;;;9.20;;
75016;SDS011;63577;39.766;2.720;2023-12-29T11:16:29;23.40;;;14.60;;
75016;SDS011;63577;39.766;2.720;2023-12-29T11:18:55;25.50;;;15.70;;
75016;SDS011;63577;39.766;2.720;2023-12-29T11:21:21;29.70;;;19.30;;
75016;SDS011;63577;39.766;2.720;2023-12-29T11:23:48;34.70;;;22.80;;
75016;SDS011;63577;39.766;2.720;2023-12-29T11:26:14;34.70;;;22.40;;
75016;SDS011;63577;39.766;2.720;2023-12-29T11:28:40;36.40;;;24.60;;
75016;SDS011;63577;39.766;2.720;2023-12-29T11:31:05;42.50;;;25.60;;
75016;SDS011;63577;39.766;2.720;2023-12-29T11:33:50;35.70;;;25.20;;
75016;SDS011;63577;39.766;2.720;2023-12-29T11:36:25;33.10;;;22.30;;
75016;SDS011;63577;39.766;2.720;2023-12-29T11:44:02;24.40;;;14.50;;
75016;SDS011;63577;39.766;2.720;2023-12-29T11:46:42;20.70;;;13.90;;
75016;SDS011;63577;39.766;2.720;2023-12-29T11:49:09;18.90;;;12.90;;
75016;SDS011;63577;39.766;2.720;2023-12-29T11:54:03;16.50;;;10.00;;
75016;SDS011;63577;39.766;2.720;2023-12-29T11:56:30;15.90;;;9.80;;
75016;SDS011;63577;39.766;2.720;2023-12-29T11:58:55;15.00;;;9.40;;
75016;SDS011;63577;39.766;2.720;2023-12-29T12:01:33;18.70;;;9.70;;
75016;SDS011;63577;39.766;2.720;2023-12-29T12:04:01;18.50;;;11.80;;
75016;SDS011;63577;39.766;2.720;2023-12-29T12:06:36;15.70;;;10.00;;
75016;SDS011;63577;39.766;2.720;2023-12-29T12:09:15;14.50;;;10.00;;
75016;SDS011;63577;39.766;2.720;2023-12-29T12:11:41;17.60;;;10.40;;
75016;SDS011;63577;39.766;2.720;2023-12-29T12:14:06;16.20;;;11.10;;
75016;SDS011;63577;39.766;2.720;2023-12-29T12:19:06;21.10;;;13.20;;
75016;SDS011;63577;39.766;2.720;2023-12-29T12:21:32;14.50;;;9.90;;
75016;SDS011;63577;39.766;2.720;2023-12-29T12:23:57;13.20;;;9.70;;
75016;SDS011;63577;39.766;2.720;2023-12-29T12:26:23;14.10;;;9.80;;
75016;SDS011;63577;39.766;2.720;2023-12-29T12:28:53;14.40;;;9.00;;
75016;SDS011;63577;39.766;2.720;2023-12-29T12:31:19;28.20;;;11.50;;
75016;SDS011;63577;39.766;2.720;2023-12-29T12:33:52;23.60;;;11.00;;
75016;SDS011;63577;39.766;2.720;2023-12-29T12:36:18;16.90;;;11.20;;
75016;SDS011;63577;39.766;2.720;2023-12-29T12:38:50;22.20;;;10.50;;
75016;SDS011;63577;39.766;2.720;2023-12-29T12:41:17;24.70;;;9.90;;
75016;SDS011;63577;39.766;2.720;2023-12-29T12:43:44;17.40;;;10.00;;
75016;SDS011;63577;39.766;2.720;2023-12-29T12:46:12;13.10;;;7.80;;
75016;SDS011;63577;39.766;2.720;2023-12-29T12:48:45;13.30;;;9.50;;
75016;SDS011;63577;39.766;2.720;2023-12-29T12:51:11;12.80;;;9.70;;
75016;SDS011;63577;39.766;2.720;2023-12-29T12:53:40;20.50;;;12.60;;
75016;SDS011;63577;39.766;2.720;2023-12-29T12:56:06;20.70;;;12.60;;
75016;SDS011;63577;39.766;2.720;2023-12-29T12:58:33;21.20;;;12.00;;
75016;SDS011;63577;39.766;2.720;2023-12-29T13:00:59;14.90;;;8.60;;
75016;SDS011;63577;39.766;2.720;2023-12-29T13:03:25;20.30;;;10.20;;
75016;SDS011;63577;39.766;2.720;2023-12-29T13:05:50;13.30;;;7.80;;
75016;SDS011;63577;39.766;2.720;2023-12-29T13:08:16;14.50;;;10.10;;
75016;SDS011;63577;39.766;2.720;2023-12-29T13:10:42;11.60;;;8.00;;
75016;SDS011;63577;39.766;2.720;2023-12-29T13:13:08;13.80;;;8.80;;
75016;SDS011;63577;39.766;2.720;2023-12-29T13:15:33;12.30;;;8.60;;
75016;SDS011;63577;39.766;2.720;2023-12-29T13:17:59;14.70;;;9.70;;
75016;SDS011;63577;39.766;2.720;2023-12-29T13:20:24;13.60;;;9.60;;
75016;SDS011;63577;39.766;2.720;2023-12-29T13:22:50;19.40;;;12.20;;
75016;SDS011;63577;39.766;2.720;2023-12-29T13:25:24;22.60;;;12.90;;
75016;SDS011;63577;39.766;2.720;2023-12-29T13:27:50;21.20;;;14.60;;
75016;SDS011;63577;39.766;2.720;2023-12-29T13:30:17;17.20;;;10.80;;
75016;SDS011;63577;39.766;2.720;2023-12-29T13:32:43;45.90;;;28.90;;
75016;SDS011;63577;39.766;2.720;2023-12-29T13:37:50;16.20;;;10.50;;
75016;SDS011;63577;39.766;2.720;2023-12-29T13:40:27;11.20;;;8.20;;
75016;SDS011;63577;39.766;2.720;2023-12-29T13:42:55;11.40;;;7.60;;
75016;SDS011;63577;39.766;2.720;2023-12-29T13:45:22;12.40;;;8.10;;
75016;SDS011;63577;39.766;2.720;2023-12-29T13:47:47;12.30;;;9.40;;
75016;SDS011;63577;39.766;2.720;2023-12-29T13:50:13;15.40;;;11.40;;
75016;SDS011;63577;39.766;2.720;2023-12-29T13:52:38;18.90;;;12.20;;
75016;SDS011;63577;39.766;2.720;2023-12-29T13:55:04;18.90;;;14.00;;
75016;SDS011;63577;39.766;2.720;2023-12-29T13:57:31;20.80;;;14.50;;
75016;SDS011;63577;39.766;2.720;2023-12-29T13:59:57;16.10;;;10.90;;
75016;SDS011;63577;39.766;2.720;2023-12-29T14:05:05;16.10;;;11.00;;
75016;SDS011;63577;39.766;2.720;2023-12-29T14:07:35;14.00;;;9.70;;
75016;SDS011;63577;39.766;2.720;2023-12-29T14:10:00;15.60;;;11.00;;
75016;SDS011;63577;39.766;2.720;2023-12-29T14:12:26;19.30;;;14.20;;
75016;SDS011;63577;39.766;2.720;2023-12-29T14:14:51;16.10;;;10.60;;
75016;SDS011;63577;39.766;2.720;2023-12-29T14:17:20;13.50;;;9.90;;
75016;SDS011;63577;39.766;2.720;2023-12-29T14:19:46;13.10;;;9.70;;
75016;SDS011;63577;39.766;2.720;2023-12-29T14:22:20;11.40;;;8.70;;
75016;SDS011;63577;39.766;2.720;2023-12-29T14:24:58;13.00;;;8.50;;
75016;SDS011;63577;39.766;2.720;2023-12-29T14:27:24;11.30;;;8.00;;
75016;SDS011;63577;39.766;2.720;2023-12-29T14:29:50;12.90;;;8.50;;
75016;SDS011;63577;39.766;2.720;2023-12-29T14:32:15;11.80;;;8.30;;
75016;SDS011;63577;39.766;2.720;2023-12-29T14:34:40;12.60;;;8.20;;
75016;SDS011;63577;39.766;2.720;2023-12-29T14:37:06;11.40;;;8.10;;
75016;SDS011;63577;39.766;2.720;2023-12-29T14:39:31;12.80;;;8.50;;
75016;SDS011;63577;39.766;2.720;2023-12-29T14:41:56;13.60;;;9.20;;
75016;SDS011;63577;39.766;2.720;2023-12-29T14:44:22;14.10;;;9.90;;
75016;SDS011;63577;39.766;2.720;2023-12-29T14:46:49;17.30;;;11.10;;
75016;SDS011;63577;39.766;2.720;2023-12-29T14:49:28;14.90;;;10.50;;
75016;SDS011;63577;39.766;2.720;2023-12-29T14:51:53;14.70;;;10.50;;